Time;durP1;ratioP1;P1;durP2;ratioP2;P2;SDS_P1;SDS_P2;PMS_P1;PMS_P2;Temp;Humidity;BMP_temperature;BMP_pressure;BME280_temperature;BME280_humidity;BME280_pressure;Samples;Min_cycle;Max_cycle;Signal;HPM_P1;HPM_P2
2022/02/27 00:00:08;;;;;;;0.40;0.40;;;3.30;99.90;;;;;;5028567;28;20283;-84
2022/02/27 00:02:33;;;;;;;0.30;0.30;;;3.30;99.90;;;;;;5025068;28;20189;-84
2022/02/27 00:04:59;;;;;;;0.33;0.33;;;3.30;99.90;;;;;;5028086;28;20666;-85
2022/02/27 00:07:25;;;;;;;0.10;0.10;;;3.30;99.90;;;;;;5027579;28;20566;-84
2022/02/27 00:09:50;;;;;;;0.30;0.30;;;3.30;99.90;;;;;;5028276;28;20192;-84
2022/02/27 00:12:16;;;;;;;0.10;0.10;;;3.20;99.90;;;;;;5026848;28;20610;-84
2022/02/27 00:14:41;;;;;;;1.40;0.40;;;3.20;99.90;;;;;;5023069;28;20679;-84
2022/02/27 00:17:07;;;;;;;0.87;0.20;;;3.30;99.90;;;;;;5025555;28;20650;-84
2022/02/27 00:19:34;;;;;;;0.17;0.17;;;3.40;99.90;;;;;;5022703;28;20704;-84
2022/02/27 00:21:59;;;;;;;0.20;0.20;;;3.60;99.90;;;;;;5019792;28;20184;-84
2022/02/27 00:24:25;;;;;;;0.17;0.17;;;3.70;99.90;;;;;;5026217;28;20194;-84
2022/02/27 00:26:51;;;;;;;0.63;0.40;;;3.70;99.90;;;;;;5024625;28;20221;-83
2022/02/27 00:29:16;;;;;;;1.13;0.50;;;3.60;99.90;;;;;;5025763;28;20300;-84
2022/02/27 00:31:42;;;;;;;1.20;0.37;;;3.50;99.90;;;;;;5027042;28;20277;-83
2022/02/27 00:34:08;;;;;;;0.10;0.10;;;3.20;99.90;;;;;;5020827;28;20209;-84
2022/02/27 00:36:33;;;;;;;0.10;0.10;;;3.00;99.90;;;;;;5025178;28;20197;-84
2022/02/27 00:38:59;;;;;;;1.03;0.50;;;2.90;99.90;;;;;;5028149;28;20209;-83
2022/02/27 00:41:24;;;;;;;0.23;0.23;;;2.70;99.90;;;;;;5023333;28;20189;-84
2022/02/27 00:43:50;;;;;;;0.10;0.10;;;2.70;99.90;;;;;;5027271;28;20209;-83
2022/02/27 00:46:16;;;;;;;0.10;0.10;;;2.70;99.90;;;;;;5026168;28;20833;-85
2022/02/27 00:48:41;;;;;;;0.20;0.20;;;2.70;99.90;;;;;;5024168;28;21268;-84
2022/02/27 00:51:07;;;;;;;0.40;0.40;;;2.70;99.90;;;;;;5024702;28;20189;-84
2022/02/27 00:53:32;;;;;;;0.30;0.30;;;2.70;99.90;;;;;;5024791;28;20189;-84
2022/02/27 00:55:58;;;;;;;0.13;0.13;;;2.70;99.90;;;;;;5022576;28;20182;-84
2022/02/27 00:58:24;;;;;;;0.10;0.10;;;2.70;99.90;;;;;;5026967;28;20230;-85
2022/02/27 01:00:49;;;;;;;0.23;0.23;;;2.70;99.90;;;;;;5022736;28;20180;-84
2022/02/27 01:03:15;;;;;;;0.20;0.20;;;2.80;99.90;;;;;;5024833;28;20188;-84
2022/02/27 01:05:40;;;;;;;0.10;0.10;;;2.80;99.90;;;;;;5024784;28;20210;-83
2022/02/27 01:08:06;;;;;;;0.60;0.60;;;2.80;99.90;;;;;;5027230;28;20242;-84
2022/02/27 01:10:31;;;;;;;1.43;0.53;;;2.80;99.90;;;;;;5021851;28;20188;-83
2022/02/27 01:12:57;;;;;;;0.77;0.67;;;2.80;99.90;;;;;;5025618;28;20194;-83
2022/02/27 01:15:22;;;;;;;2.90;1.27;;;2.70;99.90;;;;;;5021277;28;20211;-84
2022/02/27 01:17:48;;;;;;;0.10;0.10;;;2.80;99.90;;;;;;5022096;28;20225;-83
2022/02/27 01:20:15;;;;;;;0.20;0.20;;;2.80;99.90;;;;;;5021994;28;20230;-83
2022/02/27 01:22:41;;;;;;;0.47;0.47;;;2.80;99.90;;;;;;5025709;28;20814;-84
2022/02/27 01:25:09;;;;;;;0.30;0.30;;;2.70;99.90;;;;;;5025845;28;20233;-84
2022/02/27 01:27:36;;;;;;;1.87;0.33;;;2.70;99.90;;;;;;5026108;28;20581;-83
2022/02/27 01:30:04;;;;;;;0.10;0.10;;;2.70;99.90;;;;;;5023358;28;20193;-84
2022/02/27 01:32:30;;;;;;;0.30;0.30;;;2.70;99.90;;;;;;5024360;28;20319;-84
2022/02/27 01:34:55;;;;;;;0.30;0.30;;;2.70;99.90;;;;;;5023089;28;20724;-85
2022/02/27 01:37:21;;;;;;;0.47;0.30;;;2.60;99.90;;;;;;5025294;28;20273;-85
2022/02/27 01:39:46;;;;;;;0.10;0.10;;;2.60;99.90;;;;;;5020369;28;20562;-83
2022/02/27 01:42:13;;;;;;;0.40;0.40;;;2.60;99.90;;;;;;5025060;28;20199;-85
2022/02/27 01:44:43;;;;;;;0.20;0.20;;;2.60;99.90;;;;;;5025623;28;20230;-84
2022/02/27 01:47:12;;;;;;;0.10;0.10;;;2.60;99.90;;;;;;5022171;28;20193;-84
2022/02/27 01:49:39;;;;;;;0.23;0.23;;;2.50;99.90;;;;;;5018540;28;20194;-83
2022/02/27 01:52:05;;;;;;;0.20;0.20;;;2.50;99.90;;;;;;5024681;28;20191;-83
2022/02/27 01:54:32;;;;;;;0.90;0.90;;;2.40;99.90;;;;;;5023382;28;20231;-84
2022/02/27 01:56:59;;;;;;;0.30;0.30;;;2.40;99.90;;;;;;5025800;28;20176;-84
2022/02/27 01:59:24;;;;;;;0.50;0.50;;;2.40;99.90;;;;;;5023872;28;20267;-83
2022/02/27 02:01:50;;;;;;;0.50;0.13;;;2.40;99.90;;;;;;5024288;28;20192;-84
2022/02/27 02:04:15;;;;;;;0.77;0.30;;;2.30;99.90;;;;;;5022760;28;20202;-84
2022/02/27 02:06:41;;;;;;;0.00;0.00;;;2.40;99.90;;;;;;5022952;28;20259;-83
2022/02/27 02:09:07;;;;;;;0.50;0.50;;;2.40;99.90;;;;;;5023028;28;20570;-84
2022/02/27 02:11:35;;;;;;;0.20;0.20;;;2.40;99.90;;;;;;5023023;28;20598;-85
2022/02/27 02:14:02;;;;;;;0.40;0.20;;;2.30;99.90;;;;;;5023762;28;20211;-84
2022/02/27 02:16:40;;;;;;;0.07;0.07;;;2.30;99.90;;;;;;5021654;28;20178;-85
2022/02/27 02:19:06;;;;;;;0.50;0.50;;;2.30;99.90;;;;;;5023195;28;20320;-83
2022/02/27 02:21:44;;;;;;;0.10;0.10;;;2.30;99.90;;;;;;5023942;28;20268;-84
2022/02/27 02:24:10;;;;;;;0.20;0.20;;;2.30;99.90;;;;;;5022495;28;20192;-84
2022/02/27 02:26:38;;;;;;;0.73;0.30;;;2.30;99.90;;;;;;5023865;28;20646;-84
2022/02/27 02:29:09;;;;;;;0.30;0.30;;;2.30;99.90;;;;;;5024983;28;20214;-84
2022/02/27 02:31:35;;;;;;;0.20;0.20;;;2.20;99.90;;;;;;5018151;28;20188;-84
2022/02/27 02:34:09;;;;;;;0.10;0.10;;;2.30;99.90;;;;;;5022015;28;20216;-84
2022/02/27 02:36:34;;;;;;;0.17;0.17;;;2.20;99.90;;;;;;5023888;28;20222;-84
2022/02/27 02:39:02;;;;;;;0.30;0.30;;;2.20;99.90;;;;;;5025814;28;20706;-84
2022/02/27 02:41:28;;;;;;;0.10;0.10;;;2.20;99.90;;;;;;5023947;28;20246;-84
2022/02/27 02:43:53;;;;;;;0.10;0.10;;;2.20;99.90;;;;;;5022219;28;20194;-84
2022/02/27 02:46:19;;;;;;;0.10;0.10;;;2.20;99.90;;;;;;5022769;28;20187;-84
2022/02/27 02:48:44;;;;;;;0.10;0.10;;;2.20;99.90;;;;;;5023735;28;20214;-84
2022/02/27 02:51:10;;;;;;;0.20;0.13;;;2.20;99.90;;;;;;5022095;28;20280;-83
2022/02/27 02:53:38;;;;;;;0.10;0.10;;;2.10;99.90;;;;;;5018351;28;20191;-85
2022/02/27 02:56:05;;;;;;;0.03;0.03;;;2.10;99.90;;;;;;5021425;28;20187;-84
2022/02/27 02:58:36;;;;;;;0.37;0.37;;;2.10;99.90;;;;;;5024481;28;20210;-84
2022/02/27 03:01:02;;;;;;;0.17;0.17;;;2.10;99.90;;;;;;5024788;28;20583;-85
2022/02/27 03:03:28;;;;;;;0.17;0.07;;;2.10;99.90;;;;;;5023444;28;20192;-84
2022/02/27 03:05:53;;;;;;;0.17;0.17;;;2.10;99.90;;;;;;5018923;28;20218;-85
2022/02/27 03:08:19;;;;;;;0.30;0.30;;;2.10;99.90;;;;;;5022581;28;20219;-83
2022/02/27 03:10:45;;;;;;;0.63;0.63;;;2.10;99.90;;;;;;5025084;28;20194;-84
2022/02/27 03:13:11;;;;;;;0.20;0.20;;;2.10;99.90;;;;;;5022506;28;20217;-84
2022/02/27 03:15:37;;;;;;;1.60;0.27;;;2.10;99.90;;;;;;5022605;28;20207;-84
2022/02/27 03:18:02;;;;;;;0.17;0.17;;;2.10;99.90;;;;;;5028793;28;20209;-84
2022/02/27 03:20:28;;;;;;;2.10;0.23;;;2.20;99.90;;;;;;5025292;28;20240;-83
2022/02/27 03:22:53;;;;;;;0.10;0.10;;;2.20;99.90;;;;;;5026872;28;20189;-83
2022/02/27 03:25:19;;;;;;;0.10;0.10;;;2.20;99.90;;;;;;5026049;28;20183;-83
2022/02/27 03:27:44;;;;;;;0.30;0.20;;;2.20;99.90;;;;;;5027836;28;20736;-84
2022/02/27 03:30:10;;;;;;;0.50;0.50;;;2.20;99.90;;;;;;5028836;28;20216;-84
2022/02/27 03:32:36;;;;;;;0.00;0.00;;;2.20;99.90;;;;;;5028727;28;20199;-83
2022/02/27 03:35:02;;;;;;;0.10;0.10;;;2.20;99.90;;;;;;5026956;28;20208;-84
2022/02/27 03:37:28;;;;;;;0.03;0.03;;;2.20;99.90;;;;;;5025816;28;20279;-84
2022/02/27 03:39:53;;;;;;;0.20;0.20;;;2.20;99.90;;;;;;5023404;28;20233;-83
2022/02/27 03:42:19;;;;;;;0.93;0.67;;;2.20;99.90;;;;;;5025068;28;20241;-84
2022/02/27 03:44:45;;;;;;;0.50;0.20;;;2.20;99.90;;;;;;5027894;28;20275;-85
2022/02/27 03:47:10;;;;;;;0.10;0.10;;;2.30;99.90;;;;;;5027325;28;20207;-84
2022/02/27 03:49:36;;;;;;;0.20;0.20;;;2.20;99.90;;;;;;5024342;28;20193;-84
2022/02/27 03:52:03;;;;;;;0.50;0.50;;;2.20;99.90;;;;;;5027380;28;20656;-83
2022/02/27 03:54:29;;;;;;;0.37;0.37;;;2.20;99.90;;;;;;5027901;28;20294;-84
2022/02/27 03:56:55;;;;;;;0.10;0.10;;;2.20;99.90;;;;;;5027512;28;20192;-84
2022/02/27 03:59:20;;;;;;;0.53;0.53;;;2.20;99.90;;;;;;5026821;28;20226;-84
2022/02/27 04:01:46;;;;;;;0.20;0.20;;;2.20;99.90;;;;;;5025112;28;20186;-83
2022/02/27 04:04:11;;;;;;;0.00;0.00;;;2.20;99.90;;;;;;5027310;28;20673;-84
2022/02/27 04:06:37;;;;;;;0.60;0.60;;;2.20;99.90;;;;;;5024781;28;20320;-84
2022/02/27 04:09:02;;;;;;;1.67;0.33;;;2.20;99.90;;;;;;5024003;28;20227;-84
2022/02/27 04:11:28;;;;;;;0.33;0.33;;;2.20;99.90;;;;;;5025442;28;20689;-83
2022/02/27 04:13:54;;;;;;;0.23;0.23;;;2.20;99.90;;;;;;5026156;28;20251;-83
2022/02/27 04:16:19;;;;;;;0.20;0.20;;;2.20;99.90;;;;;;5026043;28;20187;-84
2022/02/27 04:18:45;;;;;;;0.30;0.20;;;2.20;99.90;;;;;;5020246;28;20809;-83
2022/02/27 04:21:10;;;;;;;0.37;0.37;;;2.20;99.90;;;;;;5023470;28;20649;-84
2022/02/27 04:23:36;;;;;;;0.40;0.40;;;2.20;99.90;;;;;;5024436;28;20191;-83
2022/02/27 04:26:02;;;;;;;0.10;0.10;;;2.10;99.90;;;;;;5021423;28;20660;-84
2022/02/27 04:28:27;;;;;;;0.20;0.20;;;2.10;99.90;;;;;;5023795;28;20212;-83
2022/02/27 04:30:53;;;;;;;0.20;0.20;;;2.10;99.90;;;;;;5026204;28;20199;-84
2022/02/27 04:33:18;;;;;;;0.20;0.20;;;2.00;99.90;;;;;;5025997;28;20271;-84
2022/02/27 04:35:44;;;;;;;0.03;0.03;;;2.00;99.90;;;;;;5025580;28;20229;-84
2022/02/27 04:38:09;;;;;;;0.83;0.40;;;2.10;99.90;;;;;;5025901;28;20213;-85
2022/02/27 04:40:35;;;;;;;0.63;0.40;;;2.10;99.90;;;;;;5027413;28;20192;-84
2022/02/27 04:43:01;;;;;;;0.83;0.83;;;2.00;99.90;;;;;;5027191;28;20185;-85
2022/02/27 04:45:28;;;;;;;0.43;0.43;;;2.00;99.90;;;;;;5024994;28;20192;-84
2022/02/27 04:47:53;;;;;;;1.07;0.53;;;2.00;99.90;;;;;;5022747;28;20325;-83
2022/02/27 04:50:19;;;;;;;0.30;0.30;;;2.10;99.90;;;;;;5027079;28;20738;-85
2022/02/27 04:52:45;;;;;;;1.60;1.00;;;2.00;99.90;;;;;;5023015;28;20200;-84
2022/02/27 04:55:10;;;;;;;0.23;0.23;;;2.00;99.90;;;;;;5027210;28;20578;-84
2022/02/27 04:57:36;;;;;;;0.30;0.27;;;2.00;99.90;;;;;;5026050;28;20209;-85
2022/02/27 05:00:06;;;;;;;0.10;0.10;;;1.90;99.90;;;;;;5024067;28;20189;-84
2022/02/27 05:02:33;;;;;;;0.10;0.10;;;1.90;99.90;;;;;;5027682;28;20183;-84
2022/02/27 05:04:58;;;;;;;0.17;0.17;;;1.80;99.90;;;;;;5026316;28;20233;-85
2022/02/27 05:07:24;;;;;;;0.20;0.20;;;1.80;99.90;;;;;;5026531;28;20199;-83
2022/02/27 05:09:49;;;;;;;0.20;0.20;;;1.80;99.90;;;;;;5025492;28;20186;-84
2022/02/27 05:12:15;;;;;;;0.27;0.27;;;1.90;99.90;;;;;;5022378;28;20552;-84
2022/02/27 05:14:40;;;;;;;1.80;0.97;;;1.90;99.90;;;;;;5024105;28;20697;-84
2022/02/27 05:17:06;;;;;;;0.40;0.40;;;1.80;99.90;;;;;;5024980;28;20201;-83
2022/02/27 05:19:31;;;;;;;0.10;0.10;;;1.90;99.90;;;;;;5024851;28;21183;-84
2022/02/27 05:21:57;;;;;;;0.10;0.10;;;1.80;99.90;;;;;;5027109;28;20707;-84
2022/02/27 05:24:22;;;;;;;0.30;0.30;;;1.80;99.90;;;;;;5024906;28;20190;-84
2022/02/27 05:26:48;;;;;;;0.20;0.20;;;1.80;99.90;;;;;;5023166;28;20193;-85
2022/02/27 05:29:13;;;;;;;0.43;0.43;;;1.80;99.90;;;;;;5025767;28;20201;-84
2022/02/27 05:31:40;;;;;;;0.47;0.20;;;1.80;99.90;;;;;;5026136;28;20182;-85
2022/02/27 05:34:06;;;;;;;0.17;0.17;;;1.80;99.90;;;;;;5023413;28;20230;-83
2022/02/27 05:36:32;;;;;;;0.30;0.30;;;1.70;99.90;;;;;;5020942;28;20664;-83
2022/02/27 05:38:57;;;;;;;0.10;0.10;;;1.70;99.90;;;;;;5023048;28;20289;-83
2022/02/27 05:41:23;;;;;;;0.30;0.30;;;1.70;99.90;;;;;;5022960;28;20969;-84
2022/02/27 05:43:48;;;;;;;0.13;0.13;;;1.70;99.90;;;;;;5026110;28;20183;-84
2022/02/27 05:46:14;;;;;;;0.20;0.20;;;1.60;99.90;;;;;;5025684;28;20191;-83
2022/02/27 05:48:39;;;;;;;0.50;0.50;;;1.70;99.90;;;;;;5024470;28;20208;-84
2022/02/27 05:51:05;;;;;;;0.10;0.10;;;1.70;99.90;;;;;;5025178;28;20202;-84
2022/02/27 05:53:30;;;;;;;0.10;0.10;;;1.70;99.90;;;;;;5022475;28;20187;-84
2022/02/27 05:55:57;;;;;;;0.30;0.30;;;1.70;99.90;;;;;;5019314;28;20683;-84
2022/02/27 05:58:24;;;;;;;2.10;0.20;;;1.70;99.90;;;;;;5026116;28;20211;-84
2022/02/27 06:00:50;;;;;;;0.47;0.47;;;1.70;99.90;;;;;;5021924;28;20185;-84
2022/02/27 06:03:16;;;;;;;1.07;0.67;;;1.70;99.90;;;;;;5024850;28;20190;-84
2022/02/27 06:05:43;;;;;;;0.20;0.20;;;1.60;99.90;;;;;;5025782;28;20789;-84
2022/02/27 06:08:09;;;;;;;0.10;0.10;;;1.70;99.90;;;;;;5025606;28;20210;-84
2022/02/27 06:10:34;;;;;;;0.10;0.10;;;1.60;99.90;;;;;;5024143;28;20194;-83
2022/02/27 06:13:00;;;;;;;0.20;0.20;;;1.60;99.90;;;;;;5024562;28;20184;-83
2022/02/27 06:15:25;;;;;;;0.30;0.30;;;1.70;99.90;;;;;;5021951;28;20864;-84
2022/02/27 06:17:51;;;;;;;0.40;0.20;;;1.60;99.90;;;;;;5023902;28;20205;-84
2022/02/27 06:20:16;;;;;;;0.20;0.20;;;1.60;99.90;;;;;;5020437;28;20215;-84
2022/02/27 06:22:44;;;;;;;0.10;0.10;;;1.60;99.90;;;;;;5024342;28;20187;-83
2022/02/27 06:25:11;;;;;;;0.20;0.20;;;1.60;99.90;;;;;;5022527;28;20187;-83
2022/02/27 06:27:42;;;;;;;0.40;0.40;;;1.70;99.90;;;;;;5023545;28;20208;-84
2022/02/27 06:30:12;;;;;;;0.10;0.10;;;1.70;99.90;;;;;;5024936;28;20179;-83
2022/02/27 06:32:38;;;;;;;0.20;0.20;;;1.70;99.90;;;;;;5020220;28;20211;-84
2022/02/27 06:35:05;;;;;;;1.00;1.00;;;1.70;99.90;;;;;;5018325;28;20254;-83
2022/02/27 06:37:31;;;;;;;0.20;0.20;;;1.80;99.90;;;;;;5023267;28;20189;-83
2022/02/27 06:39:57;;;;;;;0.10;0.10;;;1.80;99.90;;;;;;5024046;28;20186;-82
2022/02/27 06:42:22;;;;;;;0.13;0.13;;;1.90;99.90;;;;;;5023377;28;20572;-83
2022/02/27 06:44:48;;;;;;;0.20;0.20;;;1.90;99.90;;;;;;5018875;28;20192;-82
2022/02/27 06:47:14;;;;;;;0.50;0.50;;;2.00;99.90;;;;;;5024023;28;20190;-83
2022/02/27 06:49:39;;;;;;;0.60;0.60;;;2.10;99.90;;;;;;5023429;28;20656;-82
2022/02/27 06:52:05;;;;;;;0.10;0.10;;;2.20;99.90;;;;;;5017344;28;20611;-83
2022/02/27 06:54:31;;;;;;;0.10;0.10;;;2.30;99.90;;;;;;5031673;28;20562;-82
2022/02/27 06:56:56;;;;;;;2.97;1.33;;;2.30;99.90;;;;;;5032086;28;20178;-82
2022/02/27 06:59:22;;;;;;;0.10;0.10;;;2.40;99.90;;;;;;5030489;28;20576;-82
2022/02/27 07:01:47;;;;;;;0.60;0.30;;;2.50;99.90;;;;;;5022537;28;20240;-81
2022/02/27 07:04:13;;;;;;;0.20;0.20;;;2.50;99.90;;;;;;5025885;28;20239;-81
2022/02/27 07:06:39;;;;;;;0.10;0.10;;;2.60;99.90;;;;;;5046212;28;20204;-81
2022/02/27 07:09:05;;;;;;;1.90;0.30;;;2.60;99.90;;;;;;5020341;28;20224;-82
2022/02/27 07:11:30;;;;;;;0.20;0.20;;;2.60;99.90;;;;;;5020948;28;20194;-82
2022/02/27 07:13:56;;;;;;;0.50;0.50;;;2.70;99.90;;;;;;5020031;28;20199;-81
2022/02/27 07:16:23;;;;;;;0.40;0.40;;;2.80;99.90;;;;;;5023255;28;20204;-80
2022/02/27 07:18:49;;;;;;;2.30;1.03;;;2.90;99.90;;;;;;5022581;28;20220;-81
2022/02/27 07:21:16;;;;;;;0.30;0.30;;;2.90;99.90;;;;;;5020755;28;20216;-81
2022/02/27 07:23:41;;;;;;;0.50;0.50;;;3.10;99.90;;;;;;5025534;28;20280;-82
2022/02/27 07:26:07;;;;;;;0.10;0.10;;;3.10;99.90;;;;;;5021289;28;20286;-82
2022/02/27 07:28:32;;;;;;;0.20;0.20;;;3.20;99.90;;;;;;5025554;28;20212;-82
2022/02/27 07:30:58;;;;;;;0.50;0.50;;;3.20;99.90;;;;;;5026334;28;20187;-81
2022/02/27 07:33:23;;;;;;;4.23;0.43;;;3.50;99.90;;;;;;5027065;28;20203;-82
2022/02/27 07:35:49;;;;;;;0.60;0.33;;;3.50;99.90;;;;;;5026472;28;20254;-82
2022/02/27 07:38:15;;;;;;;0.40;0.40;;;3.50;99.90;;;;;;5027522;28;20202;-82
2022/02/27 07:40:40;;;;;;;0.20;0.20;;;3.70;99.90;;;;;;5026328;28;20188;-81
2022/02/27 07:43:06;;;;;;;0.40;0.40;;;3.70;99.90;;;;;;5023334;28;20242;-82
2022/02/27 07:45:31;;;;;;;0.10;0.10;;;3.70;99.90;;;;;;5028485;28;20267;-82
2022/02/27 07:47:57;;;;;;;0.90;0.37;;;4.00;99.90;;;;;;5022426;28;20212;-84
2022/02/27 07:50:22;;;;;;;0.60;0.60;;;4.10;99.90;;;;;;5019940;28;20202;-82
2022/02/27 07:52:48;;;;;;;0.20;0.20;;;3.90;99.90;;;;;;5022940;28;20207;-82
2022/02/27 07:55:13;;;;;;;0.20;0.20;;;3.90;99.90;;;;;;5020185;28;20252;-82
2022/02/27 07:57:39;;;;;;;0.70;0.70;;;4.10;99.90;;;;;;5018733;28;20745;-82
2022/02/27 08:00:06;;;;;;;0.27;0.27;;;4.30;99.90;;;;;;5024865;28;20208;-82
2022/02/27 08:02:32;;;;;;;0.43;0.30;;;4.70;99.90;;;;;;5024244;28;20268;-83
2022/02/27 08:04:57;;;;;;;6.60;0.67;;;5.00;99.90;;;;;;5029474;28;20213;-83
2022/02/27 08:07:23;;;;;;;0.20;0.20;;;5.00;99.90;;;;;;5029874;28;20197;-83
2022/02/27 08:09:49;;;;;;;0.23;0.23;;;4.90;99.90;;;;;;5024682;28;20198;-84
2022/02/27 08:12:14;;;;;;;0.30;0.30;;;4.60;99.90;;;;;;5021397;28;20197;-83
2022/02/27 08:14:40;;;;;;;1.27;1.27;;;4.60;99.90;;;;;;5025926;28;20213;-83
2022/02/27 08:17:05;;;;;;;0.93;0.83;;;4.90;99.90;;;;;;5020665;28;20190;-84
2022/02/27 08:19:31;;;;;;;0.20;0.20;;;5.30;99.90;;;;;;5022062;28;20696;-83
2022/02/27 08:21:56;;;;;;;0.20;0.20;;;5.20;99.90;;;;;;5020876;28;20289;-83
2022/02/27 08:24:22;;;;;;;0.40;0.40;;;5.70;99.90;;;;;;5022845;28;20631;-83
2022/02/27 08:26:47;;;;;;;0.67;0.67;;;5.30;99.90;;;;;;5013703;28;20217;-83
2022/02/27 08:29:13;;;;;;;0.30;0.13;;;5.30;99.90;;;;;;5023501;28;20231;-83
2022/02/27 08:31:42;;;;;;;0.20;0.20;;;5.40;99.90;;;;;;5027281;28;20196;-83
2022/02/27 08:34:08;;;;;;;0.83;0.83;;;5.30;99.90;;;;;;5022336;28;20297;-81
2022/02/27 08:36:33;;;;;;;0.80;0.77;;;5.40;99.90;;;;;;5023464;28;20205;-80
2022/02/27 08:38:59;;;;;;;0.23;0.23;;;5.50;99.90;;;;;;5021200;28;20210;-81
2022/02/27 08:41:26;;;;;;;0.70;0.70;;;5.60;99.90;;;;;;5028298;28;20223;-80
2022/02/27 08:43:52;;;;;;;0.40;0.40;;;5.80;99.90;;;;;;5025116;28;20208;-81
2022/02/27 08:46:18;;;;;;;0.93;0.83;;;5.70;99.90;;;;;;5028448;28;20212;-81
2022/02/27 08:48:44;;;;;;;1.07;1.00;;;5.80;99.90;;;;;;5027847;28;20197;-82
2022/02/27 08:51:09;;;;;;;0.20;0.20;;;5.70;99.90;;;;;;5027026;28;21002;-82
2022/02/27 08:53:35;;;;;;;4.57;0.40;;;6.10;99.90;;;;;;5021798;28;20179;-81
2022/02/27 08:56:00;;;;;;;1.13;0.33;;;5.70;99.90;;;;;;5026833;28;20768;-82
2022/02/27 08:58:27;;;;;;;0.20;0.20;;;6.00;99.90;;;;;;5028774;28;20281;-81
2022/02/27 09:00:53;;;;;;;0.90;0.87;;;6.20;99.90;;;;;;5030062;28;20264;-81
2022/02/27 09:03:24;;;;;;;2.33;2.13;;;6.10;99.90;;;;;;5029688;28;20186;-82
2022/02/27 09:05:53;;;;;;;0.30;0.30;;;6.30;99.90;;;;;;5024717;28;20228;-81
2022/02/27 09:08:19;;;;;;;0.30;0.30;;;6.30;99.90;;;;;;5023786;28;20292;-81
2022/02/27 09:10:45;;;;;;;0.20;0.20;;;6.50;99.90;;;;;;5021969;28;20273;-85
2022/02/27 09:13:11;;;;;;;0.37;0.37;;;6.70;99.90;;;;;;5023208;28;20286;-85
2022/02/27 09:15:36;;;;;;;0.40;0.40;;;6.80;99.90;;;;;;5018658;28;20246;-85
2022/02/27 09:18:02;;;;;;;0.70;0.70;;;7.20;99.90;;;;;;5021944;28;20235;-85
2022/02/27 09:20:28;;;;;;;3.30;0.33;;;7.20;99.90;;;;;;5019754;28;20193;-85
2022/02/27 09:22:54;;;;;;;0.70;0.70;;;7.20;99.90;;;;;;5022378;28;20178;-85
2022/02/27 09:25:20;;;;;;;0.40;0.40;;;6.70;99.90;;;;;;5022233;28;20244;-86
2022/02/27 09:27:45;;;;;;;0.60;0.60;;;6.60;99.90;;;;;;5022694;28;20317;-85
2022/02/27 09:30:14;;;;;;;0.13;0.13;;;6.80;99.90;;;;;;5023406;28;20190;-85
2022/02/27 09:32:40;;;;;;;0.40;0.40;;;6.90;99.90;;;;;;5025008;28;20213;-86
2022/02/27 09:35:06;;;;;;;0.63;0.63;;;6.90;99.90;;;;;;5023687;28;20210;-86
2022/02/27 09:37:33;;;;;;;0.20;0.20;;;7.30;99.90;;;;;;5020564;28;20225;-86
2022/02/27 09:39:59;;;;;;;0.80;0.80;;;7.30;99.90;;;;;;5023661;28;20683;-85
2022/02/27 09:42:29;;;;;;;1.50;0.40;;;6.60;99.90;;;;;;5020319;28;20233;-85
2022/02/27 09:44:56;;;;;;;0.20;0.20;;;6.80;99.90;;;;;;5023094;28;20202;-85
2022/02/27 09:47:22;;;;;;;0.50;0.40;;;7.20;99.90;;;;;;5023883;28;20218;-85
2022/02/27 09:49:48;;;;;;;0.20;0.20;;;7.50;99.90;;;;;;5022478;28;20622;-85
2022/02/27 09:52:15;;;;;;;1.17;0.60;;;7.30;99.90;;;;;;5020758;28;20192;-85
2022/02/27 09:54:41;;;;;;;0.20;0.20;;;7.40;99.90;;;;;;5023582;28;20782;-85
2022/02/27 09:57:06;;;;;;;0.83;0.50;;;7.50;99.90;;;;;;5017366;28;20187;-86
2022/02/27 09:59:32;;;;;;;0.80;0.53;;;7.30;99.90;;;;;;5014758;28;20208;-85
2022/02/27 10:02:03;;;;;;;1.80;0.83;;;7.10;99.90;;;;;;5016102;28;20683;-84
2022/02/27 10:04:37;;;;;;;1.53;0.50;;;7.50;99.90;;;;;;5017978;28;20198;-86
2022/02/27 10:07:10;;;;;;;0.53;0.53;;;7.60;99.90;;;;;;5019002;28;20187;-86
2022/02/27 10:09:37;;;;;;;0.27;0.27;;;7.40;99.90;;;;;;5017927;28;20254;-85
2022/02/27 10:12:12;;;;;;;0.77;0.47;;;7.20;99.90;;;;;;5021958;28;20209;-86
2022/02/27 10:14:37;;;;;;;1.30;0.60;;;7.10;99.90;;;;;;5021985;28;20209;-83
2022/02/27 10:17:07;;;;;;;0.33;0.33;;;7.40;99.90;;;;;;5018877;28;20584;-83
2022/02/27 10:19:38;;;;;;;0.10;0.10;;;7.60;99.90;;;;;;5014793;28;21134;-82
2022/02/27 10:22:07;;;;;;;0.93;0.63;;;7.50;99.90;;;;;;5015766;28;20179;-83
2022/02/27 10:24:35;;;;;;;1.63;0.80;;;7.30;99.90;;;;;;5016525;28;20186;-83
2022/02/27 10:27:09;;;;;;;0.63;0.60;;;7.10;99.90;;;;;;5013743;28;20182;-83
2022/02/27 10:29:35;;;;;;;0.30;0.30;;;7.50;99.90;;;;;;5010783;28;20212;-82
2022/02/27 10:32:03;;;;;;;0.73;0.73;;;7.80;99.90;;;;;;5018739;28;20179;-83
2022/02/27 10:34:33;;;;;;;0.70;0.70;;;8.20;99.90;;;;;;5015268;28;20206;-83
2022/02/27 10:36:59;;;;;;;0.70;0.70;;;7.60;99.90;;;;;;5020331;28;20203;-82
2022/02/27 10:39:38;;;;;;;0.30;0.30;;;7.70;99.90;;;;;;5020823;28;20205;-84
2022/02/27 10:42:19;;;;;;;0.73;0.40;;;8.10;99.90;;;;;;5017420;28;20183;-84
2022/02/27 10:44:54;;;;;;;0.40;0.40;;;8.50;99.90;;;;;;5017706;28;20347;-83
2022/02/27 10:47:21;;;;;;;0.27;0.20;;;8.50;99.90;;;;;;5017757;28;20212;-84
2022/02/27 10:49:51;;;;;;;0.30;0.30;;;8.50;99.90;;;;;;5020830;28;20207;-84
2022/02/27 10:52:29;;;;;;;1.30;0.70;;;8.70;99.90;;;;;;5016583;28;20195;-84
2022/02/27 10:54:58;;;;;;;0.40;0.40;;;8.90;99.90;;;;;;5019148;28;20311;-84
2022/02/27 10:57:29;;;;;;;0.10;0.10;;;8.80;99.90;;;;;;5016418;28;20305;-84
2022/02/27 10:59:56;;;;;;;0.57;0.57;;;9.00;99.90;;;;;;5019436;28;20205;-85
2022/02/27 11:02:27;;;;;;;0.20;0.20;;;9.30;99.90;;;;;;5018331;28;20208;-84
2022/02/27 11:04:53;;;;;;;2.27;0.83;;;9.50;99.90;;;;;;5017875;28;20325;-84
2022/02/27 11:07:18;;;;;;;0.10;0.10;;;9.00;99.90;;;;;;5017131;28;20190;-84
2022/02/27 11:09:45;;;;;;;0.70;0.53;;;9.20;99.90;;;;;;5013788;28;20213;-84
2022/02/27 11:12:15;;;;;;;1.83;0.30;;;9.30;99.90;;;;;;5017322;28;20208;-83
2022/02/27 11:14:42;;;;;;;0.30;0.30;;;9.10;99.90;;;;;;5022725;28;20220;-82
2022/02/27 11:17:10;;;;;;;0.30;0.30;;;9.10;99.90;;;;;;5012125;28;21146;-83
2022/02/27 11:19:37;;;;;;;0.20;0.20;;;8.90;99.90;;;;;;5017299;28;20221;-83
2022/02/27 11:22:05;;;;;;;0.43;0.43;;;9.00;99.90;;;;;;5014296;28;20222;-83
2022/02/27 11:24:33;;;;;;;0.30;0.30;;;9.10;99.90;;;;;;5016245;28;22078;-83
2022/02/27 11:26:59;;;;;;;1.07;0.43;;;9.10;99.90;;;;;;5018424;28;20207;-83
2022/02/27 11:29:25;;;;;;;0.23;0.23;;;9.00;99.90;;;;;;5021539;28;20304;-82
2022/02/27 11:31:51;;;;;;;0.30;0.30;;;9.10;99.90;;;;;;5017725;28;20299;-83
2022/02/27 11:34:19;;;;;;;0.47;0.47;;;9.40;99.90;;;;;;5015712;28;20217;-82
2022/02/27 11:36:49;;;;;;;0.50;0.50;;;9.30;99.90;;;;;;5016793;28;20194;-82
2022/02/27 11:41:59;;;;;;;0.40;0.40;;;8.50;99.90;;;;;;5019136;28;20671;-82
2022/02/27 11:44:36;;;;;;;0.40;0.40;;;8.80;99.90;;;;;;5014327;28;20200;-83
2022/02/27 11:47:10;;;;;;;0.37;0.33;;;9.20;99.90;;;;;;5020468;28;20207;-83
2022/02/27 11:49:39;;;;;;;0.20;0.20;;;8.80;99.90;;;;;;5017790;28;20217;-83
2022/02/27 11:52:14;;;;;;;1.70;0.30;;;9.00;99.90;;;;;;5020698;28;20657;-83
2022/02/27 11:54:49;;;;;;;0.20;0.20;;;9.40;99.90;;;;;;5039849;28;20205;-82
2022/02/27 11:57:26;;;;;;;0.30;0.30;;;9.50;99.90;;;;;;5020193;28;20393;-83
2022/02/27 11:59:59;;;;;;;0.47;0.30;;;9.30;99.90;;;;;;5020545;28;20182;-82
2022/02/27 12:02:45;;;;;;;0.27;0.27;;;9.50;99.90;;;;;;5020072;28;20190;-83
2022/02/27 12:05:16;;;;;;;1.30;0.50;;;9.30;99.90;;;;;;5018021;28;20205;-82
2022/02/27 12:07:57;;;;;;;0.20;0.20;;;9.50;99.90;;;;;;5020958;28;20222;-83
2022/02/27 12:10:35;;;;;;;0.50;0.40;;;9.30;99.90;;;;;;5019859;28;20283;-83
2022/02/27 12:13:01;;;;;;;0.70;0.70;;;9.60;99.90;;;;;;5022969;28;20194;-83
2022/02/27 12:15:31;;;;;;;0.10;0.10;;;9.70;99.90;;;;;;5018380;28;20220;-82
2022/02/27 12:18:08;;;;;;;0.30;0.30;;;9.90;99.90;;;;;;5040308;28;20202;-82
2022/02/27 12:20:40;;;;;;;0.33;0.33;;;9.90;99.90;;;;;;5020952;28;20282;-83
2022/02/27 12:23:27;;;;;;;0.53;0.30;;;9.90;99.90;;;;;;5016115;28;20664;-83
2022/02/27 12:25:53;;;;;;;1.60;0.60;;;10.00;99.90;;;;;;5018378;28;20205;-82
2022/02/27 12:28:51;;;;;;;0.53;0.50;;;9.70;99.90;;;;;;5017914;28;20269;-82
2022/02/27 12:31:20;;;;;;;0.93;0.43;;;10.00;99.90;;;;;;5017639;28;20190;-82
2022/02/27 12:33:48;;;;;;;1.30;0.63;;;10.10;99.90;;;;;;5019611;28;20706;-81
2022/02/27 12:36:25;;;;;;;0.67;0.47;;;10.00;99.90;;;;;;5022404;28;20343;-82
2022/02/27 12:39:01;;;;;;;7.73;0.50;;;10.00;99.90;;;;;;5016924;28;20693;-82
2022/02/27 12:41:29;;;;;;;0.20;0.20;;;9.10;99.90;;;;;;5039349;28;20189;-82
2022/02/27 12:43:54;;;;;;;0.27;0.27;;;9.30;99.90;;;;;;5016561;28;20655;-82
2022/02/27 12:46:20;;;;;;;0.87;0.47;;;9.50;99.90;;;;;;5020570;28;20208;-82
2022/02/27 12:51:32;;;;;;;0.40;0.40;;;9.90;99.90;;;;;;5024009;28;20394;-82
2022/02/27 12:53:59;;;;;;;0.10;0.10;;;9.00;99.90;;;;;;5019892;28;22254;-82
2022/02/27 12:56:26;;;;;;;0.20;0.20;;;9.10;99.90;;;;;;5021545;28;20197;-81
2022/02/27 12:58:55;;;;;;;0.30;0.30;;;9.20;99.90;;;;;;5020691;28;20210;-81
2022/02/27 13:01:32;;;;;;;0.87;0.80;;;9.30;99.90;;;;;;5025586;28;20195;-82